createdAt,value
2022-12-27T00:02:15.014Z,2.10
2022-12-27T00:04:41.969Z,0.93
2022-12-27T00:07:08.825Z,1.13
2022-12-27T00:09:35.912Z,0.77
2022-12-27T00:12:02.632Z,0.20
2022-12-27T00:14:29.466Z,0.30
2022-12-27T00:16:56.204Z,0.70
2022-12-27T00:19:41.729Z,0.60
2022-12-27T00:22:08.677Z,1.23
2022-12-27T00:24:35.744Z,0.97
2022-12-27T00:27:02.603Z,0.60
2022-12-27T00:29:29.393Z,1.33
2022-12-27T00:31:56.280Z,0.40
2022-12-27T00:34:41.599Z,0.60
2022-12-27T00:37:08.358Z,0.27
2022-12-27T00:39:35.096Z,0.37
2022-12-27T00:42:01.856Z,0.20
2022-12-27T00:44:28.596Z,1.23
2022-12-27T00:46:55.380Z,0.27
2022-12-27T00:49:22.147Z,0.60
2022-12-27T00:51:49.029Z,0.40
2022-12-27T00:54:15.736Z,1.27
2022-12-27T00:57:00.954Z,0.30
2022-12-27T00:59:27.901Z,0.57
2022-12-27T01:01:54.945Z,3.17
2022-12-27T01:04:21.816Z,2.20
2022-12-27T01:06:48.604Z,0.47
2022-12-27T01:09:15.475Z,0.30
2022-12-27T01:11:42.738Z,0.47
2022-12-27T01:14:10.432Z,0.73
2022-12-27T01:16:37.850Z,0.83
2022-12-27T01:19:04.619Z,0.10
2022-12-27T01:21:49.928Z,1.17
2022-12-27T01:24:16.666Z,0.40
2022-12-27T01:26:43.453Z,2.30
2022-12-27T01:29:12.661Z,0.87
2022-12-27T01:31:39.674Z,0.70
2022-12-27T01:34:06.507Z,2.03
2022-12-27T01:36:33.287Z,1.00
2022-12-27T01:39:00.682Z,2.10
2022-12-27T01:41:53.499Z,0.87
2022-12-27T01:44:43.579Z,3.50
2022-12-27T01:47:13.129Z,1.90
2022-12-27T01:49:45.759Z,0.60
2022-12-27T01:52:13.707Z,0.30
2022-12-27T01:54:40.871Z,0.30
2022-12-27T01:57:07.832Z,3.87
2022-12-27T01:59:36.046Z,2.53
2022-12-27T02:02:03.294Z,0.73
2022-12-27T02:04:50.587Z,0.50
2022-12-27T02:07:20.349Z,1.80
2022-12-27T02:09:53.696Z,1.70
2022-12-27T02:12:21.993Z,0.20
2022-12-27T02:14:49.968Z,0.87
2022-12-27T02:17:20.826Z,1.40
2022-12-27T02:20:20.032Z,0.93
2022-12-27T02:23:11.551Z,4.57
2022-12-27T02:26:06.051Z,0.30
2022-12-27T02:28:57.636Z,0.20
2022-12-27T02:31:42.391Z,4.43
2022-12-27T02:34:16.409Z,1.30
2022-12-27T02:36:46.377Z,0.77
2022-12-27T02:39:16.733Z,1.17
2022-12-27T02:42:03.769Z,1.13
2022-12-27T02:44:49.162Z,1.33
2022-12-27T02:47:38.556Z,0.20
2022-12-27T02:50:25.809Z,0.70
2022-12-27T02:56:43.985Z,3.33
2022-12-27T03:00:17.297Z,1.57
2022-12-27T03:03:18.298Z,0.97
2022-12-27T03:06:15.799Z,1.70
2022-12-27T03:09:11.748Z,2.83
2022-12-27T03:12:11.798Z,0.40
2022-12-27T03:15:03.162Z,0.20
2022-12-27T03:17:40.277Z,0.60
2022-12-27T03:20:30.282Z,0.70
2022-12-27T03:23:18.465Z,1.17
2022-12-27T03:25:49.315Z,0.20
2022-12-27T03:28:47.760Z,0.87
2022-12-27T03:31:45.855Z,1.30
2022-12-27T03:34:32.872Z,0.40
2022-12-27T03:37:41.833Z,0.10
2022-12-27T03:40:19.155Z,1.33
2022-12-27T03:43:12.955Z,0.20
2022-12-27T03:46:12.702Z,0.33
2022-12-27T03:48:46.117Z,2.13
2022-12-27T03:51:15.729Z,1.20
2022-12-27T03:53:46.119Z,2.37
2022-12-27T03:56:13.330Z,0.40
2022-12-27T03:58:40.211Z,0.63
2022-12-27T04:01:07.043Z,0.20
2022-12-27T04:03:33.863Z,0.20
2022-12-27T04:06:00.676Z,0.13
2022-12-27T04:08:45.880Z,1.07
2022-12-27T04:11:31.313Z,0.20
2022-12-27T04:14:16.521Z,0.33
2022-12-27T04:17:02.031Z,0.20
2022-12-27T04:19:47.664Z,0.20
2022-12-27T04:22:32.931Z,1.37
2022-12-27T04:25:18.409Z,1.80
2022-12-27T04:28:03.653Z,0.30
2022-12-27T04:30:48.977Z,1.10
2022-12-27T04:33:34.676Z,0.70
2022-12-27T04:36:06.207Z,0.20
2022-12-27T04:38:33.529Z,0.20
2022-12-27T04:41:18.907Z,0.50
2022-12-27T04:44:04.368Z,0.10
2022-12-27T04:46:49.617Z,0.20
2022-12-27T04:49:42.496Z,1.73
2022-12-27T04:52:39.654Z,1.00
2022-12-27T04:55:26.230Z,1.17
2022-12-27T04:57:53.741Z,0.10
2022-12-27T05:00:40.900Z,0.73
2022-12-27T05:03:20.879Z,0.83
2022-12-27T05:05:49.633Z,0.23
2022-12-27T05:08:37.052Z,2.53
2022-12-27T05:11:22.475Z,1.90
2022-12-27T05:14:01.418Z,0.20
2022-12-27T05:16:35.646Z,0.63
2022-12-27T05:19:03.370Z,2.23
2022-12-27T05:21:30.172Z,0.20
2022-12-27T05:24:15.603Z,0.63
2022-12-27T05:26:42.454Z,0.20
2022-12-27T05:29:09.259Z,0.10
2022-12-27T05:31:36.131Z,0.27
2022-12-27T05:34:03.080Z,1.43
2022-12-27T05:36:29.870Z,1.90
2022-12-27T05:38:58.103Z,0.23
2022-12-27T05:44:10.327Z,0.13
2022-12-27T05:46:37.138Z,0.30
2022-12-27T05:49:04.094Z,1.50
2022-12-27T05:51:30.952Z,0.20
2022-12-27T05:53:57.815Z,3.00
2022-12-27T05:56:24.689Z,0.40
2022-12-27T05:58:54.653Z,1.33
2022-12-27T06:01:21.521Z,3.23
2022-12-27T06:03:48.255Z,0.87
2022-12-27T06:06:15.177Z,1.47
2022-12-27T06:08:41.990Z,0.77
2022-12-27T06:11:13.874Z,0.73
2022-12-27T06:13:41.935Z,0.60
2022-12-27T06:16:11.669Z,2.20
2022-12-27T06:18:40.344Z,0.20
2022-12-27T06:21:19.203Z,0.77
2022-12-27T06:23:47.389Z,1.77
2022-12-27T06:26:20.164Z,0.30
2022-12-27T06:28:49.053Z,1.40
2022-12-27T06:31:36.370Z,1.03
2022-12-27T06:34:04.096Z,1.13
2022-12-27T06:36:30.844Z,0.67
2022-12-27T06:38:57.827Z,0.30
2022-12-27T06:41:24.667Z,1.80
2022-12-27T06:43:55.650Z,0.40
2022-12-27T06:46:25.486Z,0.50
2022-12-27T06:48:52.835Z,0.43
2022-12-27T06:51:21.220Z,1.87
2022-12-27T06:53:48.667Z,6.20
2022-12-27T06:56:18.961Z,1.07
2022-12-27T06:58:50.518Z,0.50
2022-12-27T07:01:20.713Z,3.47
2022-12-27T07:03:52.827Z,4.07
2022-12-27T07:06:20.506Z,1.17
2022-12-27T07:08:48.293Z,0.87
2022-12-27T07:11:15.834Z,1.10
2022-12-27T07:16:32.783Z,1.60
2022-12-27T07:18:59.738Z,2.20
2022-12-27T07:21:29.041Z,0.83
2022-12-27T07:23:56.640Z,2.07
2022-12-27T07:26:44.969Z,5.37
2022-12-27T07:29:11.839Z,1.80
2022-12-27T07:31:38.615Z,1.60
2022-12-27T07:34:05.457Z,2.83
2022-12-27T07:36:37.181Z,1.87
2022-12-27T07:39:04.399Z,1.87
2022-12-27T07:41:31.661Z,2.87
2022-12-27T07:44:00.575Z,2.40
2022-12-27T07:46:27.424Z,2.20
2022-12-27T07:48:56.040Z,3.53
2022-12-27T07:51:41.183Z,2.40
2022-12-27T07:54:08.038Z,3.70
2022-12-27T07:56:35.247Z,1.20
2022-12-27T07:59:02.497Z,0.70
2022-12-27T08:01:54.835Z,5.37
2022-12-27T08:04:22.811Z,1.07
2022-12-27T08:07:09.324Z,2.73
2022-12-27T08:09:38.883Z,5.53
2022-12-27T08:12:06.985Z,1.90
2022-12-27T08:14:33.792Z,1.93
2022-12-27T08:17:16.897Z,1.33
2022-12-27T08:19:43.796Z,2.27
2022-12-27T08:22:11.321Z,4.27
2022-12-27T08:24:38.543Z,1.03
2022-12-27T08:27:05.342Z,2.93
2022-12-27T08:29:32.187Z,2.07
2022-12-27T08:31:59.476Z,0.93
2022-12-27T08:34:26.224Z,0.97
2022-12-27T08:36:55.912Z,2.77
2022-12-27T08:39:23.336Z,2.37
2022-12-27T08:41:50.131Z,2.27
2022-12-27T08:44:16.888Z,0.73
2022-12-27T08:46:43.742Z,6.10
2022-12-27T08:49:10.525Z,1.93
2022-12-27T08:51:41.301Z,3.43
2022-12-27T08:54:09.141Z,2.40
2022-12-27T08:56:36.347Z,2.90
2022-12-27T08:59:03.550Z,5.53
2022-12-27T09:01:30.514Z,5.00
2022-12-27T09:03:57.469Z,1.50
2022-12-27T09:06:25.816Z,3.33
2022-12-27T09:08:56.126Z,1.47
2022-12-27T09:11:26.253Z,4.13
2022-12-27T09:13:54.394Z,6.17
2022-12-27T09:16:24.810Z,3.03
2022-12-27T09:18:53.922Z,5.83
2022-12-27T09:21:22.239Z,1.60
2022-12-27T09:24:10.975Z,3.17
2022-12-27T09:26:37.817Z,1.50
2022-12-27T09:29:05.154Z,3.50
2022-12-27T09:31:32.586Z,5.67
2022-12-27T09:33:59.572Z,2.17
2022-12-27T09:36:29.248Z,6.20
2022-12-27T09:38:57.739Z,3.47
2022-12-27T09:42:45.109Z,7.00
2022-12-27T09:45:16.316Z,0.73
2022-12-27T09:47:48.473Z,6.60
2022-12-27T09:50:30.718Z,1.80
2022-12-27T09:53:03.395Z,3.13
2022-12-27T09:55:41.898Z,2.33
2022-12-27T09:58:43.116Z,2.70
2022-12-27T10:01:33.010Z,1.60
2022-12-27T10:04:19.580Z,6.13
2022-12-27T10:07:02.488Z,6.70
2022-12-27T10:09:44.173Z,7.70
2022-12-27T10:12:31.837Z,3.83
2022-12-27T10:15:04.753Z,3.07
2022-12-27T10:17:53.712Z,3.50
2022-12-27T10:20:35.347Z,2.50
2022-12-27T10:23:28.231Z,6.23
2022-12-27T10:26:20.262Z,22.53
2022-12-27T10:28:56.852Z,13.07
2022-12-27T10:31:25.428Z,8.47
2022-12-27T10:33:52.584Z,13.10
2022-12-27T10:36:28.145Z,11.27
2022-12-27T10:38:55.270Z,9.03
2022-12-27T10:41:22.215Z,10.07
2022-12-27T10:43:53.967Z,13.17
2022-12-27T10:46:32.478Z,9.10
2022-12-27T10:51:53.511Z,9.97
2022-12-27T10:54:30.216Z,3.57
2022-12-27T10:57:15.777Z,7.10
2022-12-27T10:59:42.598Z,2.93
2022-12-27T11:02:18.802Z,4.90
2022-12-27T11:05:00.046Z,10.50
2022-12-27T11:07:32.017Z,16.13
2022-12-27T11:10:31.302Z,28.47
2022-12-27T11:13:03.695Z,25.27
2022-12-27T11:15:34.201Z,6.83
2022-12-27T11:18:21.775Z,4.77
2022-12-27T11:23:47.106Z,8.97
2022-12-27T11:26:27.786Z,8.13
2022-12-27T11:28:58.031Z,10.77
2022-12-27T11:31:37.959Z,9.43
2022-12-27T11:34:14.066Z,25.00
2022-12-27T11:36:44.212Z,30.27
2022-12-27T11:39:45.962Z,21.60
2022-12-27T11:42:26.061Z,8.17
2022-12-27T11:44:59.882Z,4.73
2022-12-27T11:47:41.006Z,5.47
2022-12-27T11:50:26.047Z,6.63
2022-12-27T11:53:11.442Z,8.87
2022-12-27T11:55:53.340Z,4.40
2022-12-27T11:58:30.653Z,8.67
2022-12-27T12:01:12.539Z,6.80
2022-12-27T12:04:02.226Z,7.40
2022-12-27T12:06:50.392Z,7.00
2022-12-27T12:09:50.742Z,6.87
2022-12-27T12:12:26.428Z,8.70
2022-12-27T12:15:07.700Z,9.70
2022-12-27T12:17:55.126Z,9.20
2022-12-27T12:20:55.258Z,10.23
2022-12-27T12:23:46.396Z,7.23
2022-12-27T12:26:22.841Z,5.23
2022-12-27T12:29:05.285Z,6.53
2022-12-27T12:32:07.306Z,7.07
2022-12-27T12:34:42.677Z,8.70
2022-12-27T12:37:39.888Z,10.60
2022-12-27T12:40:15.781Z,8.27
2022-12-27T12:43:16.532Z,9.53
2022-12-27T12:46:03.537Z,6.27
2022-12-27T12:49:03.519Z,5.40
2022-12-27T12:51:45.488Z,3.00
2022-12-27T12:54:59.161Z,3.60
2022-12-27T12:57:57.365Z,4.43
2022-12-27T13:00:32.813Z,7.40
2022-12-27T13:03:36.598Z,6.70
2022-12-27T13:06:40.333Z,7.37
2022-12-27T13:09:43.680Z,9.30
2022-12-27T13:12:18.604Z,6.77
2022-12-27T13:15:04.144Z,1.03
2022-12-27T13:18:01.792Z,6.00
2022-12-27T13:20:40.190Z,4.70
2022-12-27T13:23:38.367Z,4.53
2022-12-27T13:26:20.466Z,6.87
2022-12-27T13:29:40.379Z,4.40
2022-12-27T13:32:10.132Z,6.60
2022-12-27T13:35:21.560Z,6.60
2022-12-27T13:38:23.876Z,4.47
2022-12-27T13:41:15.333Z,5.53
2022-12-27T13:44:11.282Z,2.87
2022-12-27T13:47:12.613Z,4.27
2022-12-27T13:49:45.037Z,5.37
2022-12-27T13:52:36.143Z,5.50
2022-12-27T13:55:16.303Z,7.17
2022-12-27T13:57:52.008Z,8.07
2022-12-27T14:00:23.435Z,3.43
2022-12-27T14:03:15.073Z,4.27
2022-12-27T14:05:41.829Z,3.70
2022-12-27T14:08:35.705Z,5.43
2022-12-27T14:11:03.366Z,6.63
2022-12-27T14:13:49.549Z,4.17
2022-12-27T14:17:16.578Z,2.97
2022-12-27T14:20:02.840Z,3.03
2022-12-27T14:22:45.769Z,7.10
2022-12-27T14:25:43.062Z,3.17
2022-12-27T14:28:27.981Z,2.03
2022-12-27T14:31:33.205Z,1.73
2022-12-27T14:34:24.496Z,4.27
2022-12-27T14:36:57.050Z,2.70
2022-12-27T14:39:38.623Z,17.33
2022-12-27T14:42:53.076Z,6.57
2022-12-27T14:45:44.350Z,2.13
2022-12-27T14:48:44.923Z,4.77
2022-12-27T14:51:59.267Z,2.53
2022-12-27T14:54:52.327Z,1.13
2022-12-27T14:57:50.952Z,6.73
2022-12-27T15:00:21.081Z,3.30
2022-12-27T15:02:56.657Z,4.53
2022-12-27T15:05:29.426Z,5.73
2022-12-27T15:08:32.907Z,3.43
2022-12-27T15:11:13.319Z,10.43
2022-12-27T15:14:01.509Z,8.47
2022-12-27T15:16:56.009Z,1.83
2022-12-27T15:19:48.474Z,2.57
2022-12-27T15:22:18.412Z,2.43
2022-12-27T15:25:03.883Z,3.73
2022-12-27T15:27:38.332Z,2.03
2022-12-27T15:30:31.292Z,3.20
2022-12-27T15:33:11.197Z,1.37
2022-12-27T15:36:01.911Z,2.53
2022-12-27T15:38:54.594Z,1.83
2022-12-27T15:41:53.905Z,2.30
2022-12-27T15:44:35.577Z,1.17
2022-12-27T15:47:31.307Z,6.47
2022-12-27T15:50:19.245Z,2.93
2022-12-27T15:52:53.306Z,3.00
2022-12-27T15:55:57.723Z,6.30
2022-12-27T15:58:26.101Z,3.33
2022-12-27T16:01:23.964Z,2.00
2022-12-27T16:03:53.969Z,3.20
2022-12-27T16:06:35.882Z,2.23
2022-12-27T16:09:21.001Z,7.23
2022-12-27T16:12:11.337Z,2.47
2022-12-27T16:14:40.790Z,2.50
2022-12-27T16:17:13.634Z,1.70
2022-12-27T16:19:54.798Z,1.57
2022-12-27T16:22:30.252Z,4.33
2022-12-27T16:24:58.596Z,2.60
2022-12-27T16:27:31.173Z,2.63
2022-12-27T16:32:49.030Z,3.83
2022-12-27T16:35:16.625Z,5.80
2022-12-27T16:37:52.425Z,5.00
2022-12-27T16:40:38.074Z,7.03
2022-12-27T16:43:04.924Z,5.43
2022-12-27T16:45:58.867Z,5.53
2022-12-27T16:48:28.420Z,4.83
2022-12-27T16:51:34.417Z,8.73
2022-12-27T16:54:13.324Z,6.40
2022-12-27T16:56:44.866Z,5.83
2022-12-27T16:59:49.013Z,3.67
2022-12-27T17:02:38.155Z,6.47
2022-12-27T17:05:25.026Z,3.10
2022-12-27T17:07:55.857Z,7.40
2022-12-27T17:10:28.793Z,3.77
2022-12-27T17:13:29.718Z,6.63
2022-12-27T17:19:20.233Z,3.60
2022-12-27T17:22:13.838Z,6.53
2022-12-27T17:24:40.857Z,9.47
2022-12-27T17:27:28.051Z,7.50
2022-12-27T17:30:13.080Z,4.07
2022-12-27T17:33:06.152Z,10.83
2022-12-27T17:35:45.564Z,5.43
2022-12-27T17:38:37.269Z,8.27
2022-12-27T17:41:45.447Z,9.37
2022-12-27T17:44:56.177Z,10.60
2022-12-27T17:47:31.773Z,10.03
2022-12-27T17:50:01.903Z,12.13
2022-12-27T17:52:47.545Z,11.03
2022-12-27T17:55:40.666Z,7.30
2022-12-27T17:58:11.694Z,4.67
2022-12-27T18:00:56.221Z,11.77
2022-12-27T18:03:26.955Z,12.73
2022-12-27T18:05:53.936Z,7.57
2022-12-27T18:08:30.322Z,7.07
2022-12-27T18:11:00.084Z,11.27
2022-12-27T18:13:29.773Z,11.13
2022-12-27T18:15:57.389Z,12.13
2022-12-27T18:18:32.071Z,15.40
2022-12-27T18:21:01.040Z,9.83
2022-12-27T18:23:27.945Z,14.20
2022-12-27T18:26:05.695Z,8.40
2022-12-27T18:28:34.890Z,9.47
2022-12-27T18:31:29.749Z,11.40
2022-12-27T18:34:41.593Z,8.10
2022-12-27T18:37:16.461Z,11.30
2022-12-27T18:39:56.515Z,11.87
2022-12-27T18:42:41.138Z,15.40
2022-12-27T18:45:23.744Z,11.30
2022-12-27T18:47:53.837Z,15.97
2022-12-27T18:50:24.790Z,13.70
2022-12-27T18:53:03.376Z,10.73
2022-12-27T18:55:32.163Z,9.50
2022-12-27T18:58:06.132Z,21.53
2022-12-27T19:00:46.323Z,9.63
2022-12-27T19:03:17.983Z,10.97
2022-12-27T19:06:09.219Z,10.30
2022-12-27T19:08:39.599Z,22.07
2022-12-27T19:11:07.196Z,16.17
2022-12-27T19:13:33.896Z,17.97
2022-12-27T19:16:00.988Z,14.40
2022-12-27T19:18:35.347Z,15.03
2022-12-27T19:21:04.687Z,15.77
2022-12-27T19:23:50.229Z,13.77
2022-12-27T19:26:17.020Z,11.23
2022-12-27T19:29:01.043Z,15.07
2022-12-27T19:31:28.277Z,12.67
2022-12-27T19:33:58.654Z,13.23
2022-12-27T19:36:32.612Z,9.10
2022-12-27T19:39:00.342Z,12.03
2022-12-27T19:41:27.346Z,14.03
2022-12-27T19:43:54.730Z,15.17
2022-12-27T19:46:40.347Z,15.80
2022-12-27T19:49:40.422Z,15.43
2022-12-27T19:51:56.708Z,7.90
2022-12-27T19:54:42.647Z,9.97
2022-12-27T19:57:12.324Z,9.20
2022-12-27T19:59:39.700Z,10.23
2022-12-27T20:02:25.352Z,6.67
2022-12-27T20:05:10.884Z,6.53
2022-12-27T20:07:56.434Z,7.90
2022-12-27T20:10:23.221Z,6.03
2022-12-27T20:12:50.026Z,8.60
2022-12-27T20:15:16.879Z,8.93
2022-12-27T20:18:02.101Z,5.73
2022-12-27T20:20:28.883Z,6.67
2022-12-27T20:22:55.602Z,5.20
2022-12-27T20:25:22.395Z,9.47
2022-12-27T20:30:34.386Z,5.87
2022-12-27T20:33:01.750Z,7.10
2022-12-27T20:35:54.759Z,5.33
2022-12-27T20:38:21.544Z,5.53
2022-12-27T20:40:48.368Z,4.90
2022-12-27T20:43:16.888Z,4.23
2022-12-27T20:45:43.735Z,5.07
2022-12-27T20:50:55.419Z,5.23
2022-12-27T20:53:27.762Z,3.67
2022-12-27T20:56:14.123Z,5.83
2022-12-27T20:58:41.260Z,3.77
2022-12-27T21:01:13.927Z,5.10
2022-12-27T21:03:41.507Z,3.33
2022-12-27T21:06:10.924Z,3.57
2022-12-27T21:08:45.438Z,6.23
2022-12-27T21:11:17.574Z,6.20
2022-12-27T21:13:45.281Z,5.77
2022-12-27T21:16:21.654Z,3.90
2022-12-27T21:19:07.780Z,4.70
2022-12-27T21:21:36.200Z,2.50
2022-12-27T21:24:03.886Z,2.50
2022-12-27T21:26:33.556Z,2.40
2022-12-27T21:29:01.318Z,2.83
2022-12-27T21:31:28.701Z,2.20
2022-12-27T21:33:56.028Z,2.47
2022-12-27T21:36:25.288Z,4.00
2022-12-27T21:38:53.101Z,1.47
2022-12-27T21:41:20.786Z,2.17
2022-12-27T21:43:48.954Z,3.33
2022-12-27T21:46:25.265Z,3.33
2022-12-27T21:49:15.166Z,3.87
2022-12-27T21:51:43.473Z,3.10
2022-12-27T21:54:11.435Z,3.70
2022-12-27T21:56:39.195Z,3.93
2022-12-27T21:59:10.918Z,4.07
2022-12-27T22:01:56.469Z,3.50
2022-12-27T22:04:41.889Z,4.77
2022-12-27T22:07:08.699Z,4.50
2022-12-27T22:09:37.056Z,2.87
2022-12-27T22:12:03.923Z,3.67
2022-12-27T22:14:36.659Z,3.50
2022-12-27T22:19:48.588Z,3.33
2022-12-27T22:22:15.349Z,4.30
2022-12-27T22:24:42.130Z,14.63
2022-12-27T22:27:08.868Z,7.43
2022-12-27T22:29:35.722Z,5.77
2022-12-27T22:32:02.758Z,4.00
2022-12-27T22:34:29.559Z,3.33
2022-12-27T22:36:56.345Z,2.10
2022-12-27T22:39:23.103Z,2.50
2022-12-27T22:41:49.991Z,2.53
2022-12-27T22:44:16.681Z,32.87
2022-12-27T22:47:25.107Z,130.87
2022-12-27T22:49:30.495Z,121.73
2022-12-27T22:51:57.223Z,119.93
2022-12-27T22:55:05.842Z,113.13
2022-12-27T22:57:10.769Z,87.27
2022-12-27T22:59:37.474Z,131.57
2022-12-27T23:02:04.433Z,112.43
2022-12-27T23:04:31.468Z,85.70
2022-12-27T23:07:01.722Z,184.30
2022-12-27T23:09:29.343Z,120.17
2022-12-27T23:11:56.249Z,168.60
2022-12-27T23:14:23.080Z,139.67
2022-12-27T23:16:50.193Z,148.47
2022-12-27T23:19:21.916Z,132.07
2022-12-27T23:21:49.228Z,103.13
2022-12-27T23:24:16.338Z,117.67
2022-12-27T23:26:43.436Z,155.17
2022-12-27T23:29:14.601Z,97.80
2022-12-27T23:31:54.765Z,76.33
2022-12-27T23:34:28.142Z,97.07
2022-12-27T23:36:57.380Z,31.53
2022-12-27T23:39:24.087Z,43.00
2022-12-27T23:41:50.913Z,30.00
2022-12-27T23:44:33.080Z,15.80
2022-12-27T23:47:03.218Z,17.70
2022-12-27T23:49:30.991Z,17.00
2022-12-27T23:51:57.887Z,31.00
2022-12-27T23:54:24.614Z,19.60
2022-12-27T23:56:51.397Z,22.20
2022-12-27T23:59:18.230Z,45.53
